createdAt,value
2022-09-26T00:00:53.245Z,1.02
2022-09-26T00:03:19.752Z,1.13
2022-09-26T00:05:46.330Z,0.52
2022-09-26T00:08:12.838Z,0.73
2022-09-26T00:10:39.375Z,0.90
2022-09-26T00:13:05.915Z,1.45
2022-09-26T00:15:32.533Z,1.13
2022-09-26T00:17:59.073Z,0.60
2022-09-26T00:20:25.829Z,1.20
2022-09-26T00:22:52.364Z,0.88
2022-09-26T00:25:19.389Z,1.10
2022-09-26T00:27:45.907Z,1.15
2022-09-26T00:30:12.604Z,1.05
2022-09-26T00:32:39.123Z,0.80
2022-09-26T00:35:06.210Z,0.98
2022-09-26T00:37:32.760Z,1.00
2022-09-26T00:39:59.291Z,0.93
2022-09-26T00:42:27.484Z,1.05
2022-09-26T00:44:54.579Z,0.73
2022-09-26T00:47:37.299Z,1.00
2022-09-26T00:50:22.033Z,0.70
2022-09-26T00:53:14.966Z,0.98
2022-09-26T00:55:50.086Z,0.65
2022-09-26T00:58:25.285Z,0.55
2022-09-26T01:00:52.307Z,0.90
2022-09-26T01:03:20.552Z,1.50
2022-09-26T01:05:47.699Z,1.20
2022-09-26T01:08:17.999Z,0.75
2022-09-26T01:10:45.999Z,1.20
2022-09-26T01:13:13.153Z,0.55
2022-09-26T01:15:39.696Z,1.48
2022-09-26T01:18:07.428Z,0.73
2022-09-26T01:21:00.352Z,1.13
2022-09-26T01:23:42.132Z,1.08
2022-09-26T01:26:42.405Z,1.00
2022-09-26T01:29:30.453Z,0.98
2022-09-26T01:32:46.830Z,1.25
2022-09-26T01:35:34.404Z,0.88
2022-09-26T01:38:24.334Z,1.02
2022-09-26T01:41:29.348Z,0.60
2022-09-26T01:44:16.678Z,0.93
2022-09-26T01:47:14.035Z,0.80
2022-09-26T01:49:40.539Z,1.15
2022-09-26T01:52:33.063Z,1.08
2022-09-26T01:55:14.818Z,1.40
2022-09-26T01:57:47.606Z,0.73
2022-09-26T02:00:14.332Z,1.10
2022-09-26T02:02:47.141Z,1.20
2022-09-26T02:05:13.650Z,1.33
2022-09-26T02:07:51.816Z,1.10
2022-09-26T02:10:34.124Z,0.70
2022-09-26T02:13:08.428Z,1.05
2022-09-26T02:15:37.687Z,1.15
2022-09-26T02:18:42.834Z,0.77
2022-09-26T02:21:20.029Z,1.17
2022-09-26T02:23:51.907Z,1.30
2022-09-26T02:26:18.842Z,1.63
2022-09-26T02:28:46.608Z,1.15
2022-09-26T02:31:20.986Z,1.25
2022-09-26T02:33:49.716Z,1.60
2022-09-26T02:36:18.035Z,1.00
2022-09-26T02:38:44.660Z,1.50
2022-09-26T02:41:29.018Z,1.27
2022-09-26T02:47:32.396Z,1.27
2022-09-26T02:50:33.514Z,1.48
2022-09-26T02:53:18.824Z,1.05
2022-09-26T02:56:09.230Z,1.00
2022-09-26T02:59:08.257Z,1.10
2022-09-26T03:02:05.600Z,1.20
2022-09-26T03:04:50.511Z,1.08
2022-09-26T03:07:24.562Z,1.30
2022-09-26T03:09:53.124Z,1.20
2022-09-26T03:12:21.284Z,1.08
2022-09-26T03:14:48.924Z,1.70
2022-09-26T03:17:18.932Z,0.63
2022-09-26T03:19:59.093Z,1.40
2022-09-26T03:22:25.843Z,0.95
2022-09-26T03:24:52.501Z,1.30
2022-09-26T03:27:19.148Z,1.33
2022-09-26T03:29:45.923Z,1.00
2022-09-26T03:32:12.504Z,1.30
2022-09-26T03:34:39.765Z,1.65
2022-09-26T03:37:07.096Z,1.50
2022-09-26T03:39:33.631Z,1.63
2022-09-26T03:42:02.492Z,1.70
2022-09-26T03:44:29.580Z,0.95
2022-09-26T03:46:56.215Z,1.17
2022-09-26T03:49:22.769Z,1.33
2022-09-26T03:51:49.303Z,1.30
2022-09-26T03:54:16.491Z,0.95
2022-09-26T03:56:43.116Z,1.20
2022-09-26T03:59:09.739Z,1.33
2022-09-26T04:01:36.336Z,1.58
2022-09-26T04:04:03.025Z,1.08
2022-09-26T04:06:29.611Z,1.10
2022-09-26T04:08:56.546Z,1.15
2022-09-26T04:11:25.829Z,1.25
2022-09-26T04:13:54.116Z,1.25
2022-09-26T04:16:23.479Z,1.15
2022-09-26T04:18:56.128Z,0.88
2022-09-26T04:21:23.913Z,1.65
2022-09-26T04:23:52.741Z,1.20
2022-09-26T04:26:23.267Z,1.23
2022-09-26T04:28:54.551Z,1.55
2022-09-26T04:31:21.990Z,1.33
2022-09-26T04:33:49.375Z,1.48
2022-09-26T04:36:17.281Z,1.10
2022-09-26T04:38:44.152Z,1.25
2022-09-26T04:41:14.621Z,1.40
2022-09-26T04:43:41.475Z,1.80
2022-09-26T04:46:10.674Z,1.20
2022-09-26T04:48:37.541Z,1.35
2022-09-26T04:51:09.110Z,1.30
2022-09-26T04:53:35.971Z,1.52
2022-09-26T04:56:02.631Z,1.60
2022-09-26T04:58:29.964Z,2.05
2022-09-26T05:01:01.277Z,1.27
2022-09-26T05:03:29.502Z,1.33
2022-09-26T05:05:58.020Z,1.70
2022-09-26T05:08:26.036Z,1.13
2022-09-26T05:10:54.986Z,1.63
2022-09-26T05:13:22.872Z,1.73
2022-09-26T05:15:53.650Z,1.85
2022-09-26T05:18:21.273Z,1.00
2022-09-26T05:20:48.472Z,1.45
2022-09-26T05:23:39.670Z,1.38
2022-09-26T05:26:21.103Z,1.35
2022-09-26T05:28:55.174Z,1.52
2022-09-26T05:31:29.049Z,1.50
2022-09-26T05:33:59.115Z,1.38
2022-09-26T05:36:26.797Z,1.15
2022-09-26T05:38:53.957Z,1.50
2022-09-26T05:41:20.665Z,1.00
2022-09-26T05:43:50.998Z,1.52
2022-09-26T05:46:17.601Z,1.25
2022-09-26T05:48:44.390Z,1.70
2022-09-26T05:51:13.148Z,1.50
2022-09-26T05:53:41.395Z,1.38
2022-09-26T05:56:08.698Z,1.38
2022-09-26T05:58:38.200Z,1.38
2022-09-26T06:01:10.306Z,1.58
2022-09-26T06:03:37.905Z,1.15
2022-09-26T06:06:07.545Z,1.90
2022-09-26T06:08:36.251Z,1.30
2022-09-26T06:11:05.650Z,1.00
2022-09-26T06:13:33.756Z,1.33
2022-09-26T06:16:06.482Z,0.93
2022-09-26T06:18:37.168Z,1.42
2022-09-26T06:21:05.137Z,1.10
2022-09-26T06:23:33.546Z,1.23
2022-09-26T06:26:01.013Z,1.33
2022-09-26T06:28:28.096Z,1.67
2022-09-26T06:30:55.500Z,1.30
2022-09-26T06:33:22.626Z,1.23
2022-09-26T06:36:00.033Z,1.65
2022-09-26T06:38:27.140Z,1.42
2022-09-26T06:40:54.801Z,1.10
2022-09-26T06:43:21.717Z,1.45
2022-09-26T06:45:53.500Z,1.15
2022-09-26T06:48:25.195Z,1.45
2022-09-26T06:50:57.013Z,1.30
2022-09-26T06:53:23.610Z,1.77
2022-09-26T06:55:50.129Z,1.40
2022-09-26T06:58:16.843Z,2.15
2022-09-26T07:00:43.861Z,1.60
2022-09-26T07:03:11.882Z,1.85
2022-09-26T07:05:39.136Z,1.00
2022-09-26T07:08:05.773Z,1.38
2022-09-26T07:10:34.588Z,1.20
2022-09-26T07:13:06.524Z,1.23
2022-09-26T07:15:34.697Z,1.75
2022-09-26T07:18:07.029Z,1.10
2022-09-26T07:20:37.792Z,1.52
2022-09-26T07:23:05.467Z,1.00
2022-09-26T07:25:33.289Z,1.20
2022-09-26T07:28:01.165Z,1.65
2022-09-26T07:30:28.410Z,1.30
2022-09-26T07:33:03.082Z,1.77
2022-09-26T07:35:31.340Z,1.33
2022-09-26T07:37:58.976Z,1.40
2022-09-26T07:40:26.823Z,1.23
2022-09-26T07:43:15.357Z,1.42
2022-09-26T07:45:58.773Z,1.27
2022-09-26T07:48:44.167Z,1.83
2022-09-26T07:51:11.653Z,1.65
2022-09-26T07:53:41.015Z,1.40
2022-09-26T07:56:16.646Z,1.45
2022-09-26T07:58:43.670Z,1.38
2022-09-26T08:01:12.927Z,1.77
2022-09-26T08:03:42.122Z,1.58
2022-09-26T08:06:09.285Z,1.58
2022-09-26T08:08:36.873Z,1.55
2022-09-26T08:11:04.503Z,1.67
2022-09-26T08:13:32.712Z,1.60
2022-09-26T08:16:04.293Z,1.77
2022-09-26T08:18:31.199Z,1.77
2022-09-26T08:20:57.714Z,1.27
2022-09-26T08:26:15.807Z,1.73
2022-09-26T08:28:42.542Z,1.33
2022-09-26T08:31:10.659Z,1.52
2022-09-26T08:33:38.617Z,1.48
2022-09-26T08:36:13.281Z,1.90
2022-09-26T08:38:40.151Z,2.05
2022-09-26T08:41:35.589Z,2.08
2022-09-26T08:44:03.506Z,2.33
2022-09-26T08:47:02.026Z,2.50
2022-09-26T08:49:52.971Z,2.25
2022-09-26T08:52:28.118Z,2.28
2022-09-26T08:54:57.973Z,2.42
2022-09-26T08:57:41.258Z,2.75
2022-09-26T09:00:29.987Z,2.45
2022-09-26T09:03:23.075Z,2.15
2022-09-26T09:06:10.560Z,2.38
2022-09-26T09:08:48.441Z,2.88
2022-09-26T09:11:51.241Z,3.38
2022-09-26T09:15:24.778Z,2.42
2022-09-26T09:17:58.804Z,2.90
2022-09-26T09:21:01.646Z,2.60
2022-09-26T09:23:58.592Z,2.65
2022-09-26T09:29:49.774Z,2.97
2022-09-26T09:32:22.113Z,3.10
2022-09-26T09:34:53.643Z,2.67
2022-09-26T09:37:25.302Z,2.80
2022-09-26T09:39:53.196Z,3.40
2022-09-26T09:42:31.593Z,3.00
2022-09-26T09:45:02.589Z,3.40
2022-09-26T09:47:29.492Z,3.33
2022-09-26T09:49:57.655Z,2.75
2022-09-26T09:52:31.671Z,2.72
2022-09-26T09:55:09.635Z,3.17
2022-09-26T09:58:04.200Z,3.00
2022-09-26T10:00:34.646Z,2.92
2022-09-26T10:03:19.113Z,2.83
2022-09-26T10:05:57.547Z,2.85
2022-09-26T10:08:34.153Z,2.13
2022-09-26T10:11:03.449Z,2.58
2022-09-26T10:13:31.482Z,2.50
2022-09-26T10:16:08.115Z,2.20
2022-09-26T10:19:03.963Z,2.42
2022-09-26T10:21:39.594Z,2.53
2022-09-26T10:24:21.113Z,2.28
2022-09-26T10:26:52.884Z,2.03
2022-09-26T10:29:38.347Z,2.03
2022-09-26T10:32:05.228Z,2.58
2022-09-26T10:34:37.444Z,2.20
2022-09-26T10:37:32.596Z,1.98
2022-09-26T10:40:18.125Z,1.95
2022-09-26T10:43:28.860Z,1.98
2022-09-26T10:46:04.654Z,2.17
2022-09-26T10:48:48.034Z,2.35
2022-09-26T10:51:17.254Z,2.50
2022-09-26T10:53:46.182Z,2.40
2022-09-26T10:56:21.659Z,2.20
2022-09-26T10:58:51.949Z,2.00
2022-09-26T11:01:25.479Z,2.20
2022-09-26T11:03:55.798Z,1.98
2022-09-26T11:06:24.354Z,2.95
2022-09-26T11:08:56.101Z,2.38
2022-09-26T11:11:23.441Z,2.15
2022-09-26T11:13:56.104Z,2.15
2022-09-26T11:16:22.793Z,1.50
2022-09-26T11:18:58.899Z,1.77
2022-09-26T11:21:55.548Z,1.40
2022-09-26T11:24:32.000Z,1.95
2022-09-26T11:27:31.132Z,1.55
2022-09-26T11:30:08.964Z,1.50
2022-09-26T11:32:41.446Z,1.70
2022-09-26T11:35:30.268Z,1.90
2022-09-26T11:38:26.780Z,2.05
2022-09-26T11:41:18.806Z,1.73
2022-09-26T11:43:53.184Z,1.77
2022-09-26T11:46:33.009Z,2.15
2022-09-26T11:49:19.264Z,2.13
2022-09-26T11:51:55.490Z,2.00
2022-09-26T11:54:33.563Z,2.33
2022-09-26T11:57:28.196Z,2.72
2022-09-26T12:00:07.619Z,2.75
2022-09-26T12:03:01.335Z,2.58
2022-09-26T12:05:42.931Z,2.50
2022-09-26T12:08:32.020Z,1.80
2022-09-26T12:11:20.556Z,1.80
2022-09-26T12:14:01.403Z,2.22
2022-09-26T12:16:35.767Z,2.08
2022-09-26T12:19:15.559Z,1.88
2022-09-26T12:22:08.895Z,1.92
2022-09-26T12:24:58.246Z,2.13
2022-09-26T12:27:47.087Z,2.10
2022-09-26T12:30:21.833Z,2.53
2022-09-26T12:32:57.335Z,2.40
2022-09-26T12:35:50.335Z,2.38
2022-09-26T12:38:32.234Z,2.72
2022-09-26T12:41:25.900Z,2.20
2022-09-26T12:44:03.241Z,2.47
2022-09-26T12:46:48.852Z,2.08
2022-09-26T12:49:34.322Z,2.83
2022-09-26T12:52:08.990Z,1.85
2022-09-26T12:55:12.802Z,2.53
2022-09-26T12:57:57.055Z,2.15
2022-09-26T13:00:24.804Z,2.20
2022-09-26T13:03:27.642Z,2.42
2022-09-26T13:06:25.497Z,2.40
2022-09-26T13:08:58.381Z,1.98
2022-09-26T13:11:32.742Z,1.70
2022-09-26T13:14:20.306Z,2.67
2022-09-26T13:17:10.790Z,2.10
2022-09-26T13:19:56.337Z,2.45
2022-09-26T13:22:47.680Z,1.85
2022-09-26T13:25:22.148Z,1.88
2022-09-26T13:28:04.960Z,2.38
2022-09-26T13:30:35.540Z,1.90
2022-09-26T13:36:12.429Z,2.28
2022-09-26T13:38:57.849Z,2.17
2022-09-26T13:41:36.707Z,1.75
2022-09-26T13:44:19.037Z,1.85
2022-09-26T13:47:13.189Z,1.88
2022-09-26T13:50:18.567Z,1.95
2022-09-26T13:53:11.835Z,1.75
2022-09-26T13:55:38.453Z,1.70
2022-09-26T13:58:19.281Z,1.48
2022-09-26T14:00:53.114Z,2.13
2022-09-26T14:03:19.746Z,1.85
2022-09-26T14:05:52.084Z,2.00
2022-09-26T14:08:43.716Z,1.60
2022-09-26T14:11:19.503Z,2.40
2022-09-26T14:13:47.501Z,2.17
2022-09-26T14:16:49.073Z,1.83
2022-09-26T14:19:36.175Z,1.95
2022-09-26T14:22:25.645Z,1.85
2022-09-26T14:24:53.234Z,2.28
2022-09-26T14:27:38.837Z,2.13
2022-09-26T14:30:25.868Z,2.20
2022-09-26T14:33:00.257Z,2.05
2022-09-26T14:35:34.847Z,1.63
2022-09-26T14:38:16.236Z,1.83
2022-09-26T14:40:55.661Z,1.67
2022-09-26T14:43:24.686Z,2.05
2022-09-26T14:46:00.528Z,1.73
2022-09-26T14:48:27.106Z,2.03
2022-09-26T14:50:58.416Z,1.65
2022-09-26T14:53:40.022Z,1.65
2022-09-26T14:56:27.045Z,1.60
2022-09-26T14:58:54.918Z,1.77
2022-09-26T15:01:47.753Z,1.80
2022-09-26T15:04:22.194Z,1.60
2022-09-26T15:06:53.864Z,1.52
2022-09-26T15:09:32.375Z,1.73
2022-09-26T15:12:02.186Z,1.55
2022-09-26T15:14:47.697Z,1.38
2022-09-26T15:17:27.436Z,1.67
2022-09-26T15:19:56.876Z,1.45
2022-09-26T15:22:26.947Z,1.45
2022-09-26T15:25:15.422Z,1.90
2022-09-26T15:27:46.848Z,1.63
2022-09-26T15:30:20.053Z,1.92
2022-09-26T15:32:49.016Z,1.92
2022-09-26T15:35:16.505Z,1.08
2022-09-26T15:37:43.555Z,1.83
2022-09-26T15:40:21.200Z,1.35
2022-09-26T15:43:02.022Z,1.50
2022-09-26T15:45:35.483Z,1.60
2022-09-26T15:48:25.717Z,1.30
2022-09-26T15:51:15.787Z,1.50
2022-09-26T15:53:53.314Z,1.30
2022-09-26T15:56:34.782Z,1.30
2022-09-26T15:59:02.641Z,1.40
2022-09-26T16:01:31.378Z,1.40
2022-09-26T16:04:14.627Z,2.03
2022-09-26T16:06:52.478Z,1.00
2022-09-26T16:09:23.975Z,1.48
2022-09-26T16:11:55.355Z,1.13
2022-09-26T16:14:46.625Z,1.00
2022-09-26T16:17:35.608Z,1.13
2022-09-26T16:20:23.112Z,1.23
2022-09-26T16:23:04.724Z,0.88
2022-09-26T16:25:32.277Z,0.98
2022-09-26T16:27:59.367Z,1.40
2022-09-26T16:30:27.033Z,1.08
2022-09-26T16:32:54.912Z,1.15
2022-09-26T16:35:29.610Z,1.27
2022-09-26T16:38:00.408Z,1.20
2022-09-26T16:40:28.715Z,1.20
2022-09-26T16:43:03.442Z,0.90
2022-09-26T16:45:30.504Z,1.20
2022-09-26T16:47:57.196Z,1.35
2022-09-26T16:50:30.992Z,1.13
2022-09-26T16:52:57.880Z,0.77
2022-09-26T16:55:26.299Z,0.90
2022-09-26T16:58:03.852Z,0.98
2022-09-26T17:00:52.651Z,0.77
2022-09-26T17:03:24.803Z,1.40
2022-09-26T17:05:53.362Z,1.38
2022-09-26T17:08:20.006Z,1.08
2022-09-26T17:10:46.605Z,1.23
2022-09-26T17:13:22.571Z,1.10
2022-09-26T17:15:58.070Z,1.20
2022-09-26T17:18:28.968Z,0.75
2022-09-26T17:20:56.708Z,1.10
2022-09-26T17:23:39.323Z,1.00
2022-09-26T17:26:07.608Z,1.65
2022-09-26T17:28:38.204Z,1.30
2022-09-26T17:31:07.793Z,1.38
2022-09-26T17:33:40.452Z,1.27
2022-09-26T17:36:10.682Z,1.33
2022-09-26T17:38:40.198Z,1.40
2022-09-26T17:41:06.848Z,1.63
2022-09-26T17:43:33.909Z,1.88
2022-09-26T17:46:01.027Z,1.52
2022-09-26T17:48:33.372Z,1.30
2022-09-26T17:51:04.228Z,1.75
2022-09-26T17:53:36.989Z,1.25
2022-09-26T17:56:06.232Z,1.67
2022-09-26T17:58:34.136Z,1.38
2022-09-26T18:01:03.565Z,1.40
2022-09-26T18:03:33.981Z,1.50
2022-09-26T18:06:01.284Z,1.17
2022-09-26T18:08:30.338Z,1.67
2022-09-26T18:11:03.984Z,1.50
2022-09-26T18:13:37.466Z,1.70
2022-09-26T18:16:05.491Z,1.92
2022-09-26T18:18:33.130Z,1.83
2022-09-26T18:21:05.527Z,1.48
2022-09-26T18:23:55.527Z,1.60
2022-09-26T18:26:27.762Z,1.55
2022-09-26T18:28:56.783Z,1.30
2022-09-26T18:31:29.531Z,1.67
2022-09-26T18:33:59.916Z,1.95
2022-09-26T18:36:35.359Z,1.33
2022-09-26T18:39:01.956Z,1.38
2022-09-26T18:41:29.465Z,1.90
2022-09-26T18:44:00.122Z,1.50
2022-09-26T18:46:28.956Z,1.92
2022-09-26T18:48:58.129Z,1.38
2022-09-26T18:51:27.895Z,1.65
2022-09-26T18:53:54.585Z,1.83
2022-09-26T18:56:39.828Z,1.70
2022-09-26T18:59:10.078Z,1.92
2022-09-26T19:01:42.623Z,1.60
2022-09-26T19:04:17.495Z,1.92
2022-09-26T19:06:47.128Z,1.95
2022-09-26T19:09:16.489Z,1.73
2022-09-26T19:11:43.452Z,2.42
2022-09-26T19:14:15.987Z,2.30
2022-09-26T19:16:48.586Z,2.03
2022-09-26T19:19:16.051Z,1.63
2022-09-26T19:21:51.285Z,1.73
2022-09-26T19:24:22.919Z,1.95
2022-09-26T19:26:54.081Z,1.85
2022-09-26T19:29:28.416Z,2.05
2022-09-26T19:31:55.470Z,2.60
2022-09-26T19:37:13.985Z,1.80
2022-09-26T19:39:40.788Z,2.35
2022-09-26T19:42:07.504Z,2.55
2022-09-26T19:44:34.129Z,2.20
2022-09-26T19:47:01.942Z,2.03
2022-09-26T19:49:29.778Z,2.45
2022-09-26T19:51:56.579Z,2.90
2022-09-26T19:54:23.181Z,2.13
2022-09-26T19:56:49.767Z,1.63
2022-09-26T19:59:17.418Z,1.80
2022-09-26T20:01:46.435Z,2.03
2022-09-26T20:04:15.569Z,2.20
2022-09-26T20:06:42.417Z,1.92
2022-09-26T20:09:15.573Z,1.90
2022-09-26T20:11:42.579Z,1.58
2022-09-26T20:17:26.278Z,1.70
2022-09-26T20:19:58.376Z,2.13
2022-09-26T20:22:25.737Z,2.65
2022-09-26T20:24:55.266Z,1.52
2022-09-26T20:27:27.745Z,1.85
2022-09-26T20:30:14.412Z,1.80
2022-09-26T20:32:42.369Z,2.03
2022-09-26T20:35:15.285Z,2.15
2022-09-26T20:37:42.640Z,1.75
2022-09-26T20:40:17.941Z,1.38
2022-09-26T20:42:50.561Z,1.60
2022-09-26T20:45:20.820Z,2.05
2022-09-26T20:47:47.597Z,2.03
2022-09-26T20:50:17.544Z,1.63
2022-09-26T20:52:44.193Z,1.65
2022-09-26T20:55:16.068Z,1.60
2022-09-26T20:57:42.804Z,1.38
2022-09-26T21:00:20.676Z,1.80
2022-09-26T21:02:52.072Z,1.33
2022-09-26T21:05:24.330Z,1.40
2022-09-26T21:07:55.592Z,1.63
2022-09-26T21:10:28.092Z,1.30
2022-09-26T21:12:55.676Z,1.80
2022-09-26T21:15:24.535Z,1.58
2022-09-26T21:17:55.029Z,1.58
2022-09-26T21:20:30.573Z,1.52
2022-09-26T21:22:58.073Z,2.03
2022-09-26T21:25:27.609Z,1.90
2022-09-26T21:27:57.811Z,1.80
2022-09-26T21:30:24.724Z,1.38
2022-09-26T21:32:57.265Z,1.23
2022-09-26T21:35:28.612Z,1.50
2022-09-26T21:37:56.533Z,1.38
2022-09-26T21:40:28.351Z,1.48
2022-09-26T21:43:03.005Z,1.50
2022-09-26T21:45:29.592Z,1.25
2022-09-26T21:47:57.398Z,1.40
2022-09-26T21:50:28.177Z,1.33
2022-09-26T21:53:01.213Z,1.08
2022-09-26T21:55:33.497Z,1.55
2022-09-26T21:58:05.533Z,1.30
2022-09-26T22:00:32.140Z,2.08
2022-09-26T22:02:59.666Z,1.77
2022-09-26T22:05:26.401Z,1.55
2022-09-26T22:07:53.130Z,1.60
2022-09-26T22:10:19.885Z,1.88
2022-09-26T22:12:46.889Z,1.52
2022-09-26T22:15:13.648Z,1.55
2022-09-26T22:17:40.441Z,1.58
2022-09-26T22:20:07.358Z,1.42
2022-09-26T22:22:34.024Z,1.77
2022-09-26T22:25:03.845Z,1.65
2022-09-26T22:27:31.818Z,1.60
2022-09-26T22:29:58.505Z,1.38
2022-09-26T22:32:25.203Z,1.80
2022-09-26T22:34:51.885Z,2.00
2022-09-26T22:37:18.428Z,1.77
2022-09-26T22:39:45.073Z,1.75
2022-09-26T22:42:11.911Z,2.50
2022-09-26T22:44:38.513Z,1.75
2022-09-26T22:47:05.307Z,1.95
2022-09-26T22:49:32.359Z,1.45
2022-09-26T22:51:58.931Z,1.55
2022-09-26T22:54:25.673Z,2.13
2022-09-26T22:56:52.406Z,1.35
2022-09-26T22:59:18.986Z,1.77
2022-09-26T23:01:45.643Z,2.00
2022-09-26T23:04:12.260Z,1.92
2022-09-26T23:06:38.839Z,2.00
2022-09-26T23:09:05.568Z,1.63
2022-09-26T23:11:32.157Z,1.50
2022-09-26T23:13:58.735Z,2.17
2022-09-26T23:16:28.316Z,1.50
2022-09-26T23:18:55.264Z,2.10
2022-09-26T23:21:24.537Z,1.70
2022-09-26T23:23:54.845Z,1.50
2022-09-26T23:26:27.448Z,1.77
2022-09-26T23:28:56.145Z,1.80
2022-09-26T23:31:24.270Z,2.00
2022-09-26T23:33:52.447Z,1.58
2022-09-26T23:36:19.630Z,1.50
2022-09-26T23:38:46.386Z,1.60
2022-09-26T23:41:13.428Z,1.60
2022-09-26T23:43:40.469Z,2.15
2022-09-26T23:46:08.199Z,1.77
2022-09-26T23:48:35.366Z,1.50
2022-09-26T23:51:01.955Z,1.55
2022-09-26T23:53:28.548Z,1.33
2022-09-26T23:56:11.926Z,1.55
2022-09-26T23:58:38.565Z,1.55
